createdAt,value
2023-03-22T00:01:53.864Z,20.20
2023-03-22T00:04:35.660Z,21.00
2023-03-22T00:07:16.645Z,19.90
2023-03-22T00:10:15.821Z,21.20
2023-03-22T00:13:02.597Z,19.30
2023-03-22T00:15:44.463Z,20.00
2023-03-22T00:18:25.648Z,22.10
2023-03-22T00:21:07.451Z,24.40
2023-03-22T00:23:55.465Z,26.20
2023-03-22T00:26:36.456Z,21.60
2023-03-22T00:29:17.607Z,19.80
2023-03-22T00:32:01.485Z,17.50
2023-03-22T00:34:42.582Z,19.20
2023-03-22T00:37:24.470Z,20.60
2023-03-22T00:40:05.606Z,21.60
2023-03-22T00:42:48.485Z,19.70
2023-03-22T00:45:29.588Z,18.60
2023-03-22T00:48:10.488Z,19.30
2023-03-22T00:50:51.633Z,19.30
2023-03-22T00:53:32.444Z,19.90
2023-03-22T00:56:22.489Z,18.20
2023-03-22T00:59:18.457Z,20.60
2023-03-22T01:02:06.452Z,23.80
2023-03-22T01:04:46.627Z,22.80
2023-03-22T01:07:34.493Z,23.50
2023-03-22T01:10:09.834Z,23.00
2023-03-22T01:12:58.452Z,23.90
2023-03-22T01:15:33.624Z,21.00
2023-03-22T01:18:21.448Z,20.80
2023-03-22T01:20:55.628Z,19.20
2023-03-22T01:23:43.466Z,20.10
2023-03-22T01:26:18.569Z,19.70
2023-03-22T01:29:06.483Z,21.70
2023-03-22T01:31:41.613Z,20.60
2023-03-22T01:34:29.438Z,22.00
2023-03-22T01:37:10.451Z,19.40
2023-03-22T01:39:58.440Z,18.40
2023-03-22T01:42:34.599Z,18.80
2023-03-22T01:45:23.453Z,18.30
2023-03-22T01:48:12.517Z,18.30
2023-03-22T01:51:20.549Z,18.80
2023-03-22T01:54:12.447Z,18.20
2023-03-22T01:56:48.574Z,18.80
2023-03-22T01:59:37.518Z,19.90
2023-03-22T02:02:15.068Z,19.00
2023-03-22T02:05:04.463Z,19.20
2023-03-22T02:07:39.612Z,19.30
2023-03-22T02:10:30.515Z,20.10
2023-03-22T02:13:39.540Z,22.20
2023-03-22T02:16:57.459Z,20.60
2023-03-22T02:20:17.456Z,32.40
2023-03-22T02:23:18.452Z,27.20
2023-03-22T02:26:43.440Z,44.10
2023-03-22T02:29:48.444Z,40.70
2023-03-22T02:32:53.565Z,29.40
2023-03-22T02:35:58.476Z,22.60
2023-03-22T02:42:05.459Z,21.50
2023-03-22T02:44:52.579Z,22.80
2023-03-22T02:48:00.466Z,23.10
2023-03-22T02:50:37.821Z,21.50
2023-03-22T02:53:25.446Z,23.60
2023-03-22T02:56:09.567Z,22.70
2023-03-22T02:59:00.426Z,21.10
2023-03-22T03:01:46.672Z,21.30
2023-03-22T03:04:47.428Z,21.40
2023-03-22T03:07:25.077Z,21.70
2023-03-22T03:10:13.443Z,22.20
2023-03-22T03:12:54.500Z,19.70
2023-03-22T03:15:36.586Z,21.00
2023-03-22T03:18:33.521Z,23.20
2023-03-22T03:21:39.475Z,23.70
2023-03-22T03:24:39.522Z,23.80
2023-03-22T03:27:36.435Z,23.50
2023-03-22T03:30:38.673Z,25.10
2023-03-22T03:33:28.437Z,24.50
2023-03-22T03:36:14.428Z,22.40
2023-03-22T03:39:11.448Z,24.30
2023-03-22T03:42:00.429Z,21.60
2023-03-22T03:44:44.425Z,22.00
2023-03-22T03:47:39.437Z,22.40
2023-03-22T03:50:27.481Z,21.00
2023-03-22T03:53:02.578Z,20.30
2023-03-22T03:55:50.441Z,20.60
2023-03-22T03:58:31.603Z,21.40
2023-03-22T04:01:12.447Z,20.30
2023-03-22T04:04:02.502Z,23.40
2023-03-22T04:06:46.441Z,21.50
2023-03-22T04:09:34.437Z,20.10
2023-03-22T04:12:11.896Z,20.50
2023-03-22T04:14:59.435Z,18.20
2023-03-22T04:17:40.443Z,17.30
2023-03-22T04:20:21.565Z,17.10
2023-03-22T04:23:02.437Z,19.40
2023-03-22T04:25:57.447Z,16.60
2023-03-22T04:28:33.736Z,19.10
2023-03-22T04:31:21.474Z,16.60
2023-03-22T04:34:03.436Z,16.20
2023-03-22T04:36:46.626Z,15.70
2023-03-22T04:39:27.453Z,16.50
2023-03-22T04:42:15.421Z,15.80
2023-03-22T04:44:49.900Z,15.40
2023-03-22T04:47:37.448Z,17.60
2023-03-22T04:50:11.894Z,19.90
2023-03-22T04:52:59.437Z,19.90
2023-03-22T04:55:34.409Z,13.70
2023-03-22T04:58:23.444Z,15.30
2023-03-22T05:00:58.675Z,15.30
2023-03-22T05:03:47.534Z,14.30
2023-03-22T05:06:28.496Z,16.60
2023-03-22T05:09:16.428Z,15.60
2023-03-22T05:11:50.849Z,15.80
2023-03-22T05:14:38.584Z,14.60
2023-03-22T05:17:19.432Z,14.50
2023-03-22T05:20:08.617Z,15.70
2023-03-22T05:22:49.438Z,13.90
2023-03-22T05:25:30.543Z,15.90
2023-03-22T05:28:12.420Z,14.50
2023-03-22T05:30:57.045Z,16.30
2023-03-22T05:33:46.425Z,16.50
2023-03-22T05:36:20.653Z,15.10
2023-03-22T05:39:09.463Z,17.50
2023-03-22T05:41:44.956Z,33.90
2023-03-22T05:44:32.538Z,33.30
2023-03-22T05:47:14.433Z,41.10
2023-03-22T05:50:02.441Z,24.60
2023-03-22T05:52:37.624Z,22.10
2023-03-22T05:55:26.451Z,17.20
2023-03-22T05:58:02.198Z,16.90
2023-03-22T06:00:50.424Z,21.30
2023-03-22T06:03:24.697Z,21.70
2023-03-22T06:06:17.434Z,20.60
2023-03-22T06:09:16.544Z,18.70
2023-03-22T06:11:51.866Z,18.70
2023-03-22T06:14:39.440Z,15.90
2023-03-22T06:17:20.453Z,16.50
2023-03-22T06:20:01.551Z,21.90
2023-03-22T06:22:42.426Z,19.00
2023-03-22T06:25:23.620Z,17.20
2023-03-22T06:28:06.380Z,16.60
2023-03-22T06:30:55.445Z,17.00
2023-03-22T06:33:29.807Z,14.40
2023-03-22T06:36:17.428Z,15.60
2023-03-22T06:38:51.865Z,21.00
2023-03-22T06:41:39.437Z,18.80
2023-03-22T06:44:14.615Z,19.10
2023-03-22T06:47:02.400Z,14.60
2023-03-22T06:49:43.421Z,14.20
2023-03-22T06:52:24.580Z,14.30
2023-03-22T06:55:05.435Z,15.20
2023-03-22T06:57:53.418Z,13.10
2023-03-22T07:00:35.410Z,18.90
2023-03-22T07:03:23.411Z,14.90
2023-03-22T07:06:20.406Z,17.40
2023-03-22T07:09:09.416Z,16.60
2023-03-22T07:11:43.558Z,17.80
2023-03-22T07:14:31.429Z,15.60
2023-03-22T07:17:06.587Z,17.80
2023-03-22T07:19:54.454Z,17.00
2023-03-22T07:22:29.593Z,14.90
2023-03-22T07:25:17.407Z,15.00
2023-03-22T07:27:58.549Z,16.90
2023-03-22T07:30:42.609Z,16.90
2023-03-22T07:33:23.561Z,16.60
2023-03-22T07:36:04.420Z,14.60
2023-03-22T07:38:45.656Z,15.30
2023-03-22T07:41:26.440Z,15.10
2023-03-22T07:44:17.319Z,17.60
2023-03-22T07:46:59.741Z,15.40
2023-03-22T07:49:41.621Z,14.60
2023-03-22T07:52:22.441Z,15.50
2023-03-22T07:55:03.575Z,16.30
2023-03-22T07:57:45.419Z,14.10
2023-03-22T08:00:26.437Z,22.80
2023-03-22T08:03:01.855Z,17.60
2023-03-22T08:05:50.448Z,24.90
2023-03-22T08:08:26.703Z,19.50
2023-03-22T08:11:15.599Z,13.80
2023-03-22T08:13:57.481Z,15.00
2023-03-22T08:16:52.453Z,18.50
2023-03-22T08:19:41.454Z,16.10
2023-03-22T08:22:16.567Z,16.20
2023-03-22T08:25:04.914Z,18.70
2023-03-22T08:27:39.843Z,16.50
2023-03-22T08:30:29.415Z,14.40
2023-03-22T08:33:11.602Z,15.60
2023-03-22T08:35:59.420Z,22.40
2023-03-22T08:38:33.555Z,14.30
2023-03-22T08:41:22.423Z,13.80
2023-03-22T08:43:57.698Z,12.80
2023-03-22T08:46:45.420Z,13.60
2023-03-22T08:49:21.028Z,15.20
2023-03-22T08:52:10.434Z,15.40
2023-03-22T08:54:46.865Z,13.10
2023-03-22T08:57:38.695Z,14.30
2023-03-22T09:00:14.760Z,12.50
2023-03-22T09:03:02.416Z,13.90
2023-03-22T09:05:37.867Z,13.70
2023-03-22T09:08:27.415Z,10.00
2023-03-22T09:11:01.571Z,15.10
2023-03-22T09:13:49.426Z,11.90
2023-03-22T09:16:25.606Z,12.80
2023-03-22T09:19:13.416Z,12.70
2023-03-22T09:21:55.407Z,15.00
2023-03-22T09:24:43.422Z,14.40
2023-03-22T09:27:25.418Z,13.90
2023-03-22T09:30:21.432Z,13.60
2023-03-22T09:33:11.044Z,12.10
2023-03-22T09:35:49.555Z,12.30
2023-03-22T09:38:40.416Z,13.20
2023-03-22T09:41:18.578Z,12.80
2023-03-22T09:44:09.437Z,13.80
2023-03-22T09:46:54.417Z,13.30
2023-03-22T09:49:53.735Z,10.60
2023-03-22T09:52:35.589Z,11.00
2023-03-22T09:55:48.397Z,10.90
2023-03-22T09:58:53.581Z,11.00
2023-03-22T10:02:07.653Z,9.80
2023-03-22T10:04:57.422Z,10.90
2023-03-22T10:08:29.461Z,11.50
2023-03-22T10:11:41.876Z,11.10
2023-03-22T10:14:27.400Z,12.00
2023-03-22T10:17:24.497Z,12.80
2023-03-22T10:20:04.509Z,21.70
2023-03-22T10:23:00.415Z,46.60
2023-03-22T10:25:48.396Z,17.20
2023-03-22T10:28:27.530Z,10.80
2023-03-22T10:31:24.641Z,13.30
2023-03-22T10:34:05.547Z,11.20
2023-03-22T10:36:54.418Z,13.10
2023-03-22T10:39:40.536Z,14.30
2023-03-22T10:42:33.412Z,14.10
2023-03-22T10:45:18.417Z,16.80
2023-03-22T10:48:28.621Z,12.60
2023-03-22T10:51:06.560Z,11.60
2023-03-22T10:53:57.403Z,13.00
2023-03-22T10:56:39.444Z,13.00
2023-03-22T11:00:02.419Z,13.60
2023-03-22T11:03:08.452Z,10.50
2023-03-22T11:05:43.539Z,11.10
2023-03-22T11:08:31.420Z,10.50
2023-03-22T11:11:05.585Z,10.80
2023-03-22T11:13:58.415Z,10.70
2023-03-22T11:16:40.476Z,8.40
2023-03-22T11:19:56.430Z,7.10
2023-03-22T11:23:00.419Z,8.20
2023-03-22T11:25:53.406Z,8.90
2023-03-22T11:28:34.581Z,8.40
2023-03-22T11:31:25.515Z,6.90
2023-03-22T11:34:07.607Z,6.60
2023-03-22T11:36:51.603Z,4.70
2023-03-22T11:39:34.540Z,12.20
2023-03-22T11:42:26.427Z,5.20
2023-03-22T11:45:15.088Z,4.50
2023-03-22T11:47:50.009Z,4.50
2023-03-22T11:50:48.463Z,5.70
2023-03-22T11:53:26.451Z,4.80
2023-03-22T11:56:17.439Z,5.40
2023-03-22T11:59:12.412Z,5.40
2023-03-22T12:02:01.726Z,5.10
2023-03-22T12:04:46.456Z,5.20
2023-03-22T12:07:28.580Z,5.10
2023-03-22T12:10:28.413Z,5.90
2023-03-22T12:13:26.432Z,5.60
2023-03-22T12:16:10.475Z,5.90
2023-03-22T12:19:04.412Z,5.60
2023-03-22T12:21:45.439Z,6.40
2023-03-22T12:24:33.687Z,5.20
2023-03-22T12:27:59.445Z,5.80
2023-03-22T12:30:57.484Z,6.10
2023-03-22T12:33:46.436Z,5.50
2023-03-22T12:36:40.424Z,5.80
2023-03-22T12:39:33.525Z,5.40
2023-03-22T12:42:52.618Z,20.90
2023-03-22T12:45:36.461Z,5.90
2023-03-22T12:48:27.863Z,6.40
2023-03-22T12:51:13.419Z,5.70
2023-03-22T12:53:58.567Z,5.80
2023-03-22T12:56:52.415Z,5.70
2023-03-22T12:59:30.588Z,6.50
2023-03-22T13:02:30.558Z,6.00
2023-03-22T13:05:09.520Z,5.40
2023-03-22T13:07:59.424Z,4.50
2023-03-22T13:10:48.422Z,4.50
2023-03-22T13:13:36.515Z,4.70
2023-03-22T13:16:16.599Z,4.80
2023-03-22T13:19:06.438Z,4.90
2023-03-22T13:21:48.448Z,5.10
2023-03-22T13:24:44.454Z,5.60
2023-03-22T13:27:50.420Z,5.10
2023-03-22T13:30:38.550Z,4.50
2023-03-22T13:33:22.430Z,4.50
2023-03-22T13:36:13.448Z,4.70
2023-03-22T13:41:41.098Z,6.20
2023-03-22T13:44:53.437Z,5.00
2023-03-22T13:47:43.676Z,5.30
2023-03-22T13:50:45.331Z,5.60
2023-03-22T13:53:36.428Z,5.90
2023-03-22T13:57:03.529Z,7.40
2023-03-22T14:00:45.532Z,5.20
2023-03-22T14:03:41.539Z,4.10
2023-03-22T14:06:33.876Z,5.10
2023-03-22T14:09:36.429Z,5.00
2023-03-22T14:12:26.568Z,5.70
2023-03-22T14:15:15.524Z,4.60
2023-03-22T14:17:53.684Z,4.80
2023-03-22T14:20:43.754Z,5.30
